createdAt,value
2023-04-19T00:01:44.404Z,95.30
2023-04-19T00:04:15.135Z,95.20
2023-04-19T00:06:43.398Z,95.30
2023-04-19T00:09:11.251Z,95.30
2023-04-19T00:11:39.170Z,95.30
2023-04-19T00:14:07.129Z,95.30
2023-04-19T00:16:35.018Z,95.50
2023-04-19T00:19:02.914Z,95.40
2023-04-19T00:21:32.120Z,95.30
2023-04-19T00:23:59.944Z,95.60
2023-04-19T00:26:27.772Z,95.70
2023-04-19T00:28:55.633Z,95.60
2023-04-19T00:31:23.582Z,95.70
2023-04-19T00:33:51.616Z,95.90
2023-04-19T00:36:19.460Z,96.00
2023-04-19T00:38:48.714Z,96.00
2023-04-19T00:41:17.472Z,95.60
2023-04-19T00:43:45.359Z,95.90
2023-04-19T00:46:14.001Z,95.80
2023-04-19T00:48:41.925Z,95.80
2023-04-19T00:51:10.659Z,95.90
2023-04-19T00:53:39.607Z,95.80
2023-04-19T00:56:10.829Z,95.90
2023-04-19T00:58:39.769Z,95.50
2023-04-19T01:01:08.686Z,95.80
2023-04-19T01:03:37.587Z,95.80
2023-04-19T01:06:05.848Z,95.80
2023-04-19T01:08:33.667Z,95.90
2023-04-19T01:11:01.576Z,95.90
2023-04-19T01:13:30.843Z,95.80
2023-04-19T01:15:59.114Z,95.90
2023-04-19T01:18:32.721Z,96.00
2023-04-19T01:21:00.609Z,96.00
2023-04-19T01:23:29.804Z,96.00
2023-04-19T01:25:57.675Z,95.80
2023-04-19T01:28:25.630Z,95.90
2023-04-19T01:30:54.038Z,95.70
2023-04-19T01:33:22.423Z,95.90
2023-04-19T01:35:50.744Z,95.70
2023-04-19T01:38:18.642Z,95.90
2023-04-19T01:40:47.879Z,95.90
2023-04-19T01:43:17.686Z,96.00
2023-04-19T01:45:45.597Z,96.10
2023-04-19T01:48:13.456Z,96.00
2023-04-19T01:50:41.338Z,96.40
2023-04-19T01:53:09.266Z,96.20
2023-04-19T01:55:37.061Z,96.30
2023-04-19T01:58:06.289Z,96.30
2023-04-19T02:00:34.370Z,96.30
2023-04-19T02:03:02.393Z,96.30
2023-04-19T02:05:30.484Z,96.20
2023-04-19T02:07:58.297Z,96.10
2023-04-19T02:10:26.413Z,96.10
2023-04-19T02:12:54.413Z,96.10
2023-04-19T02:15:23.668Z,96.30
2023-04-19T02:17:51.509Z,95.70
2023-04-19T02:20:19.504Z,95.80
2023-04-19T02:22:47.935Z,96.00
2023-04-19T02:25:16.568Z,96.00
2023-04-19T02:27:44.417Z,96.00
2023-04-19T02:30:13.018Z,95.90
2023-04-19T02:32:42.253Z,96.00
2023-04-19T02:35:10.657Z,96.00
2023-04-19T02:37:38.512Z,95.70
2023-04-19T02:40:07.820Z,96.10
2023-04-19T02:42:35.989Z,95.90
2023-04-19T02:45:03.906Z,96.00
2023-04-19T02:47:31.786Z,96.10
2023-04-19T02:50:01.410Z,96.20
2023-04-19T02:52:29.337Z,96.00
2023-04-19T02:54:57.288Z,96.10
2023-04-19T02:57:25.252Z,96.00
2023-04-19T02:59:53.112Z,96.00
2023-04-19T03:02:21.034Z,96.00
2023-04-19T03:04:49.109Z,96.20
2023-04-19T03:07:18.272Z,96.10
2023-04-19T03:09:46.222Z,96.20
2023-04-19T03:12:14.043Z,96.20
2023-04-19T03:14:41.876Z,95.90
2023-04-19T03:17:09.745Z,96.20
2023-04-19T03:19:37.663Z,96.30
2023-04-19T03:22:05.504Z,96.20
2023-04-19T03:24:37.643Z,96.00
2023-04-19T03:27:06.166Z,95.70
2023-04-19T03:29:34.010Z,95.90
2023-04-19T03:32:01.859Z,96.10
2023-04-19T03:34:29.706Z,96.20
2023-04-19T03:36:57.579Z,96.30
2023-04-19T03:39:25.478Z,95.80
2023-04-19T03:41:54.716Z,96.30
2023-04-19T03:44:22.666Z,96.50
2023-04-19T03:46:50.561Z,96.50
2023-04-19T03:49:18.517Z,96.40
2023-04-19T03:51:46.355Z,96.20
2023-04-19T03:54:14.389Z,95.70
2023-04-19T03:56:42.502Z,95.80
2023-04-19T03:59:11.920Z,95.30
2023-04-19T04:01:42.173Z,95.30
2023-04-19T04:04:10.559Z,95.00
2023-04-19T04:06:38.722Z,95.30
2023-04-19T04:09:06.724Z,95.20
2023-04-19T04:11:34.632Z,95.20
2023-04-19T04:14:02.482Z,95.30
2023-04-19T04:16:31.822Z,95.30
2023-04-19T04:18:59.734Z,95.30
2023-04-19T04:21:28.234Z,95.20
2023-04-19T04:23:56.127Z,95.20
2023-04-19T04:26:25.316Z,95.20
2023-04-19T04:28:53.752Z,95.20
2023-04-19T04:31:21.669Z,95.20
2023-04-19T04:33:51.068Z,94.80
2023-04-19T04:36:18.921Z,95.00
2023-04-19T04:38:46.817Z,95.20
2023-04-19T04:41:14.763Z,95.20
2023-04-19T04:43:42.660Z,95.20
2023-04-19T04:46:10.677Z,95.20
2023-04-19T04:48:38.635Z,95.20
2023-04-19T04:51:07.982Z,95.20
2023-04-19T04:53:35.824Z,95.20
2023-04-19T04:56:03.787Z,94.70
2023-04-19T04:58:31.628Z,94.40
2023-04-19T05:00:59.547Z,94.20
2023-04-19T05:03:28.015Z,94.00
2023-04-19T05:05:56.403Z,93.60
2023-04-19T05:08:26.758Z,93.80
2023-04-19T05:10:54.683Z,92.80
2023-04-19T05:13:22.546Z,92.60
2023-04-19T05:15:50.405Z,93.00
2023-04-19T05:18:18.281Z,92.60
2023-04-19T05:20:46.817Z,91.50
2023-04-19T05:23:14.771Z,91.70
2023-04-19T05:25:44.017Z,92.00
2023-04-19T05:28:11.889Z,91.30
2023-04-19T05:30:39.825Z,91.10
2023-04-19T05:33:07.806Z,91.70
2023-04-19T05:35:35.723Z,91.60
2023-04-19T05:38:03.834Z,90.80
2023-04-19T05:40:31.754Z,90.40
2023-04-19T05:43:01.053Z,89.50
2023-04-19T05:45:28.993Z,89.70
2023-04-19T05:47:56.941Z,86.40
2023-04-19T05:50:24.850Z,86.80
2023-04-19T05:52:52.709Z,87.60
2023-04-19T05:55:20.682Z,85.80
2023-04-19T05:57:48.553Z,85.60
2023-04-19T06:00:18.951Z,84.40
2023-04-19T06:02:46.899Z,84.20
2023-04-19T06:05:17.383Z,83.80
2023-04-19T06:07:54.457Z,81.10
2023-04-19T06:10:23.432Z,81.00
2023-04-19T06:12:51.295Z,81.60
2023-04-19T06:15:20.878Z,81.90
2023-04-19T06:17:48.771Z,81.10
2023-04-19T06:20:16.803Z,83.00
2023-04-19T06:22:46.436Z,83.10
2023-04-19T06:25:15.071Z,81.10
2023-04-19T06:27:42.882Z,83.10
2023-04-19T06:30:11.103Z,81.00
2023-04-19T06:32:40.344Z,81.10
2023-04-19T06:35:09.779Z,81.10
2023-04-19T06:37:37.606Z,81.60
2023-04-19T06:40:08.298Z,80.50
2023-04-19T06:42:36.130Z,78.40
2023-04-19T06:45:04.377Z,80.70
2023-04-19T06:47:34.060Z,82.00
2023-04-19T06:50:04.943Z,80.10
2023-04-19T06:52:32.921Z,77.70
2023-04-19T06:55:00.809Z,79.90
2023-04-19T06:57:28.676Z,75.50
2023-04-19T06:59:56.756Z,76.30
2023-04-19T07:02:24.647Z,76.00
2023-04-19T07:04:52.693Z,76.10
2023-04-19T07:07:21.868Z,75.40
2023-04-19T07:09:49.706Z,72.70
2023-04-19T07:12:17.523Z,69.60
2023-04-19T07:14:45.334Z,69.20
2023-04-19T07:17:13.879Z,70.40
2023-04-19T07:19:42.387Z,69.60
2023-04-19T07:22:10.278Z,72.00
2023-04-19T07:24:41.683Z,71.00
2023-04-19T07:27:09.693Z,67.50
2023-04-19T07:29:37.755Z,69.60
2023-04-19T07:32:06.268Z,66.90
2023-04-19T07:34:34.161Z,66.80
2023-04-19T07:37:02.096Z,68.50
2023-04-19T07:39:30.987Z,67.00
2023-04-19T07:42:01.292Z,64.80
2023-04-19T07:44:29.147Z,63.80
2023-04-19T07:46:57.257Z,60.20
2023-04-19T07:49:25.216Z,60.50
2023-04-19T07:51:53.032Z,61.60
2023-04-19T07:54:21.503Z,65.00
2023-04-19T07:56:49.357Z,61.10
2023-04-19T07:59:18.689Z,61.60
2023-04-19T08:01:46.719Z,59.30
2023-04-19T08:04:14.848Z,59.80
2023-04-19T08:06:42.901Z,61.50
2023-04-19T08:09:10.732Z,61.90
2023-04-19T08:11:38.874Z,61.10
2023-04-19T08:14:18.177Z,63.60
2023-04-19T08:17:22.038Z,62.90
2023-04-19T08:19:43.976Z,59.70
2023-04-19T08:22:11.982Z,56.10
2023-04-19T08:24:40.067Z,53.10
2023-04-19T08:27:08.097Z,53.60
2023-04-19T08:29:36.023Z,55.60
2023-04-19T08:32:05.686Z,53.30
2023-04-19T08:34:35.953Z,53.30
2023-04-19T08:37:04.915Z,52.10
2023-04-19T08:39:34.168Z,50.40
2023-04-19T08:42:10.988Z,48.80
2023-04-19T08:47:29.631Z,48.20
2023-04-19T08:50:14.120Z,49.80
2023-04-19T08:52:55.980Z,44.00
2023-04-19T08:55:28.858Z,46.40
2023-04-19T08:57:58.649Z,46.00
2023-04-19T09:00:26.749Z,46.30
2023-04-19T09:02:56.968Z,48.00
2023-04-19T09:05:25.207Z,49.40
2023-04-19T09:07:54.658Z,50.00
2023-04-19T09:10:24.658Z,46.50
2023-04-19T09:13:03.561Z,44.00
2023-04-19T09:15:41.024Z,45.10
2023-04-19T09:18:17.697Z,45.50
2023-04-19T09:20:47.747Z,43.50
2023-04-19T09:23:23.183Z,43.20
2023-04-19T09:26:21.903Z,43.30
2023-04-19T09:29:00.197Z,41.70
2023-04-19T09:31:47.861Z,40.50
2023-04-19T09:34:21.612Z,40.10
2023-04-19T09:36:54.606Z,39.30
2023-04-19T09:39:32.672Z,36.20
2023-04-19T09:42:01.868Z,32.60
2023-04-19T09:47:00.770Z,32.40
2023-04-19T09:49:41.777Z,34.20
2023-04-19T09:52:16.427Z,33.20
2023-04-19T09:54:45.230Z,30.00
2023-04-19T09:57:13.678Z,34.70
2023-04-19T09:59:41.644Z,39.70
2023-04-19T10:02:13.194Z,33.70
2023-04-19T10:04:59.721Z,34.80
2023-04-19T10:07:32.712Z,34.90
2023-04-19T10:10:16.136Z,30.80
2023-04-19T10:15:22.663Z,33.40
2023-04-19T10:17:50.866Z,32.90
2023-04-19T10:20:24.142Z,32.30
2023-04-19T10:22:52.379Z,30.00
2023-04-19T10:25:29.190Z,30.40
2023-04-19T10:27:57.368Z,29.30
2023-04-19T10:30:27.633Z,31.10
2023-04-19T10:32:57.192Z,28.30
2023-04-19T10:35:29.796Z,28.30
2023-04-19T10:38:09.165Z,29.50
2023-04-19T10:40:57.247Z,28.50
2023-04-19T10:43:26.035Z,28.50
2023-04-19T10:45:54.735Z,27.80
2023-04-19T10:48:38.073Z,28.90
2023-04-19T10:51:14.644Z,26.40
2023-04-19T10:53:53.922Z,24.10
2023-04-19T10:56:24.537Z,26.50
2023-04-19T10:59:23.380Z,23.50
2023-04-19T11:01:54.160Z,26.40
2023-04-19T11:04:27.420Z,28.10
2023-04-19T11:07:05.471Z,25.70
2023-04-19T11:09:35.928Z,23.90
2023-04-19T11:12:08.700Z,24.60
2023-04-19T11:14:38.707Z,24.70
2023-04-19T11:17:17.146Z,24.50
2023-04-19T11:19:47.036Z,24.60
2023-04-19T11:22:17.709Z,23.30
2023-04-19T11:24:49.282Z,24.70
2023-04-19T11:27:18.320Z,26.30
2023-04-19T11:29:46.928Z,26.00
2023-04-19T11:32:15.409Z,24.40
2023-04-19T11:34:43.827Z,23.10
2023-04-19T11:37:12.928Z,23.70
2023-04-19T11:39:48.925Z,23.60
2023-04-19T11:42:21.507Z,21.10
2023-04-19T11:44:53.608Z,21.00
2023-04-19T11:47:22.382Z,19.90
2023-04-19T11:49:50.553Z,21.70
2023-04-19T11:52:23.835Z,20.90
2023-04-19T11:54:54.849Z,21.60
2023-04-19T11:57:30.747Z,22.40
2023-04-19T12:00:10.969Z,20.10
2023-04-19T12:02:41.144Z,20.40
2023-04-19T12:05:11.526Z,21.60
2023-04-19T12:07:58.075Z,21.80
2023-04-19T12:10:27.629Z,23.80
2023-04-19T12:12:55.831Z,22.00
2023-04-19T12:15:25.896Z,23.40
2023-04-19T12:18:00.574Z,21.50
2023-04-19T12:20:36.108Z,22.20
2023-04-19T12:23:04.995Z,21.70
2023-04-19T12:25:35.625Z,21.60
2023-04-19T12:28:05.103Z,21.90
2023-04-19T12:30:35.123Z,19.90
2023-04-19T12:33:03.632Z,20.90
2023-04-19T12:35:32.207Z,21.20
2023-04-19T12:38:01.645Z,22.70
2023-04-19T12:40:30.714Z,21.40
2023-04-19T12:43:00.350Z,21.40
2023-04-19T12:45:28.624Z,21.20
2023-04-19T12:47:57.229Z,21.20
2023-04-19T12:50:25.310Z,20.60
2023-04-19T12:52:53.823Z,22.80
2023-04-19T12:55:22.300Z,22.60
2023-04-19T12:57:50.262Z,21.40
2023-04-19T13:00:20.509Z,20.90
2023-04-19T13:02:49.480Z,21.80
2023-04-19T13:05:17.826Z,23.30
2023-04-19T13:07:46.280Z,22.30
2023-04-19T13:10:14.765Z,21.70
2023-04-19T13:12:42.749Z,23.10
2023-04-19T13:15:11.962Z,22.50
2023-04-19T13:17:41.962Z,23.30
2023-04-19T13:20:11.134Z,22.10
2023-04-19T13:22:39.202Z,21.60
2023-04-19T13:25:08.147Z,24.40
2023-04-19T13:27:36.516Z,21.00
2023-04-19T13:30:05.424Z,23.00
2023-04-19T13:32:34.058Z,21.90
2023-04-19T13:35:03.595Z,22.70
2023-04-19T13:37:31.849Z,24.60
2023-04-19T13:40:14.919Z,24.00
2023-04-19T13:42:46.554Z,21.70
2023-04-19T13:45:14.880Z,22.70
2023-04-19T13:47:43.058Z,23.70
2023-04-19T13:50:13.209Z,24.60
2023-04-19T13:52:41.318Z,24.00
2023-04-19T13:55:10.245Z,24.20
2023-04-19T13:57:38.281Z,26.70
2023-04-19T14:00:08.418Z,24.60
2023-04-19T14:02:36.861Z,24.50
2023-04-19T14:05:05.577Z,26.30
2023-04-19T14:07:34.940Z,24.70
2023-04-19T14:10:02.941Z,26.00
2023-04-19T14:12:30.843Z,26.10
2023-04-19T14:14:58.909Z,27.20
2023-04-19T14:17:27.332Z,27.90
2023-04-19T14:19:55.400Z,26.60
2023-04-19T14:22:23.508Z,27.10
2023-04-19T14:24:52.819Z,27.40
2023-04-19T14:27:21.734Z,27.20
2023-04-19T14:29:49.768Z,27.80
2023-04-19T14:32:26.050Z,28.80
2023-04-19T14:34:55.054Z,27.00
2023-04-19T14:37:23.331Z,27.80
2023-04-19T14:39:53.306Z,27.30
2023-04-19T14:42:22.836Z,26.90
2023-04-19T14:44:52.521Z,25.50
2023-04-19T14:47:20.920Z,26.30
2023-04-19T14:49:48.836Z,26.30
2023-04-19T14:52:17.394Z,24.40
2023-04-19T14:54:45.658Z,25.50
2023-04-19T14:57:15.262Z,24.90
2023-04-19T14:59:43.332Z,25.90
2023-04-19T15:02:13.276Z,25.10
2023-04-19T15:04:42.126Z,25.90
2023-04-19T15:07:10.318Z,26.20
2023-04-19T15:09:38.292Z,25.10
2023-04-19T15:12:06.438Z,25.30
2023-04-19T15:14:35.798Z,25.00
2023-04-19T15:17:04.015Z,26.20
2023-04-19T15:19:32.317Z,26.30
2023-04-19T15:22:00.217Z,24.90
2023-04-19T15:24:28.267Z,27.60
2023-04-19T15:26:56.550Z,26.00
2023-04-19T15:29:24.498Z,25.30
2023-04-19T15:31:53.809Z,26.60
2023-04-19T15:34:22.017Z,24.50
2023-04-19T15:36:49.932Z,26.40
2023-04-19T15:39:18.059Z,28.00
2023-04-19T15:41:46.131Z,26.20
2023-04-19T15:44:14.306Z,26.60
2023-04-19T15:46:42.420Z,26.30
2023-04-19T15:49:11.854Z,25.10
2023-04-19T15:51:39.912Z,27.50
2023-04-19T15:54:07.941Z,26.70
2023-04-19T15:56:35.835Z,27.00
2023-04-19T15:59:03.899Z,26.60
2023-04-19T16:01:31.805Z,27.40
2023-04-19T16:04:00.023Z,27.50
2023-04-19T16:06:29.582Z,26.70
2023-04-19T16:08:57.451Z,27.30
2023-04-19T16:11:25.589Z,24.80
2023-04-19T16:13:53.507Z,25.10
2023-04-19T16:16:21.541Z,24.80
2023-04-19T16:18:49.625Z,25.80
2023-04-19T16:21:17.563Z,24.90
2023-04-19T16:23:46.879Z,28.60
2023-04-19T16:26:15.050Z,26.10
2023-04-19T16:28:43.138Z,27.50
2023-04-19T16:31:12.122Z,28.10
2023-04-19T16:33:40.201Z,26.10
2023-04-19T16:36:08.339Z,27.40
2023-04-19T16:38:36.290Z,26.00
2023-04-19T16:41:05.950Z,27.30
2023-04-19T16:43:33.922Z,26.80
2023-04-19T16:46:01.947Z,25.70
2023-04-19T16:48:29.914Z,27.70
2023-04-19T16:50:57.905Z,26.50
2023-04-19T16:53:26.068Z,25.60
2023-04-19T16:55:56.209Z,25.20
2023-04-19T16:58:27.010Z,26.20
2023-04-19T17:00:54.969Z,26.20
2023-04-19T17:03:23.521Z,28.60
2023-04-19T17:05:51.495Z,27.40
2023-04-19T17:08:21.375Z,27.70
2023-04-19T17:10:49.295Z,29.20
2023-04-19T17:13:17.224Z,28.00
2023-04-19T17:15:46.745Z,28.70
2023-04-19T17:18:15.687Z,27.70
2023-04-19T17:20:43.607Z,27.60
2023-04-19T17:23:11.718Z,28.20
2023-04-19T17:25:39.706Z,29.40
2023-04-19T17:28:07.671Z,28.80
2023-04-19T17:30:35.805Z,29.50
2023-04-19T17:33:05.225Z,30.80
2023-04-19T17:35:33.130Z,31.50
2023-04-19T17:38:01.053Z,29.90
2023-04-19T17:40:29.530Z,30.20
2023-04-19T17:42:57.924Z,32.10
2023-04-19T17:45:26.394Z,32.10
2023-04-19T17:47:56.261Z,32.00
2023-04-19T17:50:26.553Z,32.00
2023-04-19T17:52:55.307Z,32.90
2023-04-19T17:55:23.197Z,34.00
2023-04-19T17:57:51.128Z,32.70
2023-04-19T18:00:19.318Z,32.70
2023-04-19T18:02:47.370Z,32.90
2023-04-19T18:05:15.549Z,33.20
2023-04-19T18:07:44.942Z,34.90
2023-04-19T18:10:12.769Z,34.50
2023-04-19T18:12:41.061Z,34.90
2023-04-19T18:15:10.430Z,36.00
2023-04-19T18:17:38.455Z,34.00
2023-04-19T18:20:08.249Z,35.30
2023-04-19T18:22:36.427Z,34.50
2023-04-19T18:25:06.305Z,35.40
2023-04-19T18:27:34.317Z,33.60
2023-04-19T18:30:03.713Z,36.00
2023-04-19T18:32:32.165Z,36.80
2023-04-19T18:35:00.135Z,34.80
2023-04-19T18:37:28.109Z,35.40
2023-04-19T18:39:55.996Z,35.70
2023-04-19T18:42:25.379Z,36.30
2023-04-19T18:44:54.636Z,36.40
2023-04-19T18:47:22.881Z,37.00
2023-04-19T18:50:03.608Z,37.40
2023-04-19T18:52:34.132Z,37.00
2023-04-19T18:55:02.004Z,36.90
2023-04-19T18:57:34.452Z,37.20
2023-04-19T19:00:05.255Z,38.90
2023-04-19T19:02:34.006Z,38.10
2023-04-19T19:05:02.668Z,38.10
2023-04-19T19:10:05.826Z,39.20
2023-04-19T19:12:44.328Z,39.70
2023-04-19T19:15:12.269Z,40.20
2023-04-19T19:17:40.688Z,40.30
2023-04-19T19:20:10.499Z,40.30
2023-04-19T19:22:38.411Z,40.90
2023-04-19T19:25:07.157Z,40.80
2023-04-19T19:27:35.429Z,41.20
2023-04-19T19:30:05.736Z,41.50
2023-04-19T19:32:33.634Z,41.20
2023-04-19T19:35:05.423Z,41.70
2023-04-19T19:37:34.368Z,41.90
2023-04-19T19:40:04.629Z,42.80
2023-04-19T19:42:35.472Z,42.00
2023-04-19T19:45:05.283Z,41.70
2023-04-19T19:47:35.327Z,42.00
2023-04-19T19:52:35.943Z,41.70
2023-04-19T19:55:03.940Z,42.60
2023-04-19T19:58:16.379Z,46.70
2023-04-19T20:02:55.924Z,50.20
2023-04-19T20:05:25.295Z,53.00
2023-04-19T20:08:01.616Z,52.50
2023-04-19T20:10:30.845Z,55.10
2023-04-19T20:12:58.868Z,56.60
2023-04-19T20:15:28.765Z,55.60
2023-04-19T20:17:56.729Z,54.40
2023-04-19T20:20:24.845Z,55.80
2023-04-19T20:22:52.828Z,57.40
2023-04-19T20:25:20.731Z,56.60
2023-04-19T20:27:48.585Z,58.00
2023-04-19T20:30:16.767Z,58.90
2023-04-19T20:32:46.086Z,60.00
2023-04-19T20:35:14.022Z,58.80
2023-04-19T20:37:41.998Z,59.80
2023-04-19T20:40:12.628Z,59.40
2023-04-19T20:42:40.796Z,59.10
2023-04-19T20:45:10.835Z,56.90
2023-04-19T20:47:38.922Z,57.30
2023-04-19T20:50:09.599Z,57.60
2023-04-19T20:52:37.514Z,58.80
2023-04-19T20:55:06.010Z,61.20
2023-04-19T20:57:33.886Z,62.90
2023-04-19T21:00:01.834Z,62.30
2023-04-19T21:02:29.909Z,61.20
2023-04-19T21:04:57.914Z,60.20
2023-04-19T21:07:27.119Z,59.90
2023-04-19T21:09:54.970Z,60.80
2023-04-19T21:12:22.870Z,60.60
2023-04-19T21:14:52.324Z,61.10
2023-04-19T21:17:20.365Z,61.50
2023-04-19T21:19:48.295Z,61.40
2023-04-19T21:22:16.228Z,62.00
2023-04-19T21:24:45.480Z,61.50
2023-04-19T21:27:13.438Z,62.00
2023-04-19T21:29:41.316Z,62.60
2023-04-19T21:32:09.169Z,62.00
2023-04-19T21:34:38.312Z,65.60
2023-04-19T21:37:06.241Z,67.60
2023-04-19T21:39:34.109Z,68.80
2023-04-19T21:42:03.500Z,68.10
2023-04-19T21:44:31.377Z,68.60
2023-04-19T21:46:59.286Z,68.00
2023-04-19T21:49:27.214Z,69.40
2023-04-19T21:51:56.795Z,70.80
2023-04-19T21:54:33.319Z,76.40
2023-04-19T21:57:03.814Z,79.50
2023-04-19T21:59:31.723Z,79.50
2023-04-19T22:01:59.897Z,77.50
2023-04-19T22:04:31.044Z,78.80
2023-04-19T22:07:02.035Z,78.60
2023-04-19T22:09:30.811Z,79.10
2023-04-19T22:11:59.973Z,77.30
2023-04-19T22:14:30.682Z,76.90
2023-04-19T22:17:02.632Z,75.10
2023-04-19T22:19:31.634Z,76.10
2023-04-19T22:21:59.534Z,73.30
2023-04-19T22:24:27.511Z,68.20
2023-04-19T22:26:55.592Z,68.10
2023-04-19T22:29:23.432Z,63.60
2023-04-19T22:31:52.800Z,63.40
2023-04-19T22:34:20.748Z,62.60
2023-04-19T22:36:48.630Z,61.50
2023-04-19T22:39:18.341Z,62.00
2023-04-19T22:41:46.413Z,60.10
2023-04-19T22:44:14.313Z,59.20
2023-04-19T22:46:42.188Z,58.30
2023-04-19T22:49:11.550Z,58.90
2023-04-19T22:51:39.446Z,57.40
2023-04-19T22:54:07.402Z,53.90
2023-04-19T22:56:35.290Z,56.60
2023-04-19T22:59:03.153Z,56.80
2023-04-19T23:01:31.072Z,55.40
2023-04-19T23:03:58.916Z,55.70
2023-04-19T23:06:30.197Z,56.90
2023-04-19T23:08:58.043Z,57.40
2023-04-19T23:11:26.893Z,57.20
2023-04-19T23:13:54.870Z,57.70
2023-04-19T23:16:25.089Z,56.40
2023-04-19T23:18:54.281Z,58.00
2023-04-19T23:21:22.259Z,57.90
2023-04-19T23:23:52.698Z,58.40
2023-04-19T23:26:21.635Z,57.70
2023-04-19T23:28:49.554Z,58.90
2023-04-19T23:31:17.503Z,57.50
2023-04-19T23:33:45.445Z,58.80
2023-04-19T23:36:13.354Z,57.20
2023-04-19T23:38:41.311Z,57.60
2023-04-19T23:41:12.462Z,57.20
2023-04-19T23:43:40.412Z,58.40
2023-04-19T23:46:08.474Z,58.50
2023-04-19T23:48:36.353Z,58.40
2023-04-19T23:51:04.264Z,59.70
2023-04-19T23:53:32.136Z,59.50
2023-04-19T23:56:00.010Z,58.30
2023-04-19T23:58:29.270Z,58.70
